EPKT/KTW METAR and TAF weather

Enter ICAO airport designator
Station Type Date Time Source
EPKT METAR 2018/10/22 16:00 UTC NOAA

EPKT 221600Z 28006KT CAVOK 08/03 Q1023


Station Type Date Time Source
EPKT Decoded METAR 2018/10/22 16:00 UTC NOAA

Katowice, Poland (EPKT) 50-14N 019-02E 284M
Oct 22, 2018 - 12:00 PM EDT / 2018.10.22 1600 UTC
Wind: from the W (280 degrees) at 7 MPH (6 KT):0
Visibility: greater than 7 mile(s):0
Temperature: 46 F (8 C)
Dew Point: 37 F (3 C)
Relative Humidity: 70%
Pressure (altimeter): 30.21 in. Hg (1023 hPa)
ob: EPKT 221600Z 28006KT CAVOK 08/03 Q1023
cycle: 16

Station Type Date Time Source
EPKT TAF 2018/10/22 12:33 UTC NOAA

TAF EPKT 221130Z 2212/2312 27008KT CAVOK
BECMG 2217/2219 BKN012
TEMPO 2219/2303 3000 RA BKN006
TEMPO 2309/2312 26015G25KT


Example: see airport list